sensor_id;sensor_type;location;lat;lon;timestamp;P1;durP1;ratioP1;P2;durP2;ratioP2
26082;SDS011;13848;49.018;12.078;2023-08-24T00:01:04;6.15;;;4.90;;
26082;SDS011;13848;49.018;12.078;2023-08-24T00:03:30;6.22;;;4.88;;
26082;SDS011;13848;49.018;12.078;2023-08-24T00:05:56;7.82;;;5.40;;
26082;SDS011;13848;49.018;12.078;2023-08-24T00:08:22;7.57;;;4.90;;
26082;SDS011;13848;49.018;12.078;2023-08-24T00:10:49;7.05;;;5.50;;
26082;SDS011;13848;49.018;12.078;2023-08-24T00:13:15;8.18;;;5.20;;
26082;SDS011;13848;49.018;12.078;2023-08-24T00:15:41;6.60;;;5.40;;
26082;SDS011;13848;49.018;12.078;2023-08-24T00:18:07;6.90;;;5.15;;
26082;SDS011;13848;49.018;12.078;2023-08-24T00:20:33;6.25;;;5.00;;
26082;SDS011;13848;49.018;12.078;2023-08-24T00:22:59;6.25;;;4.85;;
26082;SDS011;13848;49.018;12.078;2023-08-24T00:25:25;6.07;;;4.80;;
26082;SDS011;13848;49.018;12.078;2023-08-24T00:27:52;6.50;;;4.88;;
26082;SDS011;13848;49.018;12.078;2023-08-24T00:30:19;6.43;;;5.00;;
26082;SDS011;13848;49.018;12.078;2023-08-24T00:32:45;7.28;;;5.10;;
26082;SDS011;13848;49.018;12.078;2023-08-24T00:35:11;8.90;;;5.30;;
26082;SDS011;13848;49.018;12.078;2023-08-24T00:37:37;8.43;;;4.63;;
26082;SDS011;13848;49.018;12.078;2023-08-24T00:40:04;10.07;;;4.78;;
26082;SDS011;13848;49.018;12.078;2023-08-24T00:42:31;5.85;;;4.85;;
26082;SDS011;13848;49.018;12.078;2023-08-24T00:44:59;6.35;;;4.82;;
26082;SDS011;13848;49.018;12.078;2023-08-24T00:47:24;6.43;;;5.28;;
26082;SDS011;13848;49.018;12.078;2023-08-24T00:49:51;9.15;;;5.05;;
26082;SDS011;13848;49.018;12.078;2023-08-24T00:52:17;8.73;;;6.03;;
26082;SDS011;13848;49.018;12.078;2023-08-24T00:54:44;5.63;;;4.43;;
26082;SDS011;13848;49.018;12.078;2023-08-24T00:57:10;10.68;;;4.45;;
26082;SDS011;13848;49.018;12.078;2023-08-24T00:59:36;9.93;;;5.35;;
26082;SDS011;13848;49.018;12.078;2023-08-24T01:02:04;7.97;;;5.25;;
26082;SDS011;13848;49.018;12.078;2023-08-24T01:04:30;8.57;;;4.80;;
26082;SDS011;13848;49.018;12.078;2023-08-24T01:06:56;6.32;;;5.30;;
26082;SDS011;13848;49.018;12.078;2023-08-24T01:09:22;6.28;;;4.82;;
26082;SDS011;13848;49.018;12.078;2023-08-24T01:11:49;7.10;;;5.57;;
26082;SDS011;13848;49.018;12.078;2023-08-24T01:14:27;9.45;;;5.18;;
26082;SDS011;13848;49.018;12.078;2023-08-24T01:16:58;7.82;;;5.43;;
26082;SDS011;13848;49.018;12.078;2023-08-24T01:19:34;9.68;;;5.78;;
26082;SDS011;13848;49.018;12.078;2023-08-24T01:22:05;7.78;;;5.18;;
26082;SDS011;13848;49.018;12.078;2023-08-24T01:24:40;7.72;;;5.57;;
26082;SDS011;13848;49.018;12.078;2023-08-24T01:27:12;9.98;;;5.32;;
26082;SDS011;13848;49.018;12.078;2023-08-24T01:29:38;9.25;;;5.18;;
26082;SDS011;13848;49.018;12.078;2023-08-24T01:32:08;6.10;;;5.15;;
26082;SDS011;13848;49.018;12.078;2023-08-24T01:34:36;5.43;;;4.80;;
26082;SDS011;13848;49.018;12.078;2023-08-24T01:37:02;6.40;;;4.90;;
26082;SDS011;13848;49.018;12.078;2023-08-24T01:39:28;6.13;;;5.25;;
26082;SDS011;13848;49.018;12.078;2023-08-24T01:42:00;6.13;;;4.82;;
26082;SDS011;13848;49.018;12.078;2023-08-24T01:44:32;7.60;;;4.88;;
26082;SDS011;13848;49.018;12.078;2023-08-24T01:47:36;8.23;;;4.90;;
26082;SDS011;13848;49.018;12.078;2023-08-24T01:50:05;8.80;;;5.10;;
26082;SDS011;13848;49.018;12.078;2023-08-24T01:52:32;9.35;;;5.07;;
26082;SDS011;13848;49.018;12.078;2023-08-24T01:54:59;7.78;;;5.20;;
26082;SDS011;13848;49.018;12.078;2023-08-24T01:57:25;7.57;;;4.97;;
26082;SDS011;13848;49.018;12.078;2023-08-24T01:59:53;6.93;;;5.18;;
26082;SDS011;13848;49.018;12.078;2023-08-24T02:02:20;6.63;;;4.85;;
26082;SDS011;13848;49.018;12.078;2023-08-24T02:04:46;7.97;;;5.15;;
26082;SDS011;13848;49.018;12.078;2023-08-24T02:07:12;6.97;;;5.38;;
26082;SDS011;13848;49.018;12.078;2023-08-24T02:09:38;6.05;;;4.90;;
26082;SDS011;13848;49.018;12.078;2023-08-24T02:12:04;6.47;;;4.95;;
26082;SDS011;13848;49.018;12.078;2023-08-24T02:14:30;11.18;;;5.28;;
26082;SDS011;13848;49.018;12.078;2023-08-24T02:16:58;6.50;;;5.25;;
26082;SDS011;13848;49.018;12.078;2023-08-24T02:19:24;7.47;;;5.88;;
26082;SDS011;13848;49.018;12.078;2023-08-24T02:21:50;7.00;;;5.50;;
26082;SDS011;13848;49.018;12.078;2023-08-24T02:24:16;10.68;;;5.63;;
26082;SDS011;13848;49.018;12.078;2023-08-24T02:26:41;10.23;;;5.68;;
26082;SDS011;13848;49.018;12.078;2023-08-24T02:29:07;6.63;;;5.93;;
26082;SDS011;13848;49.018;12.078;2023-08-24T02:31:33;6.80;;;5.78;;
26082;SDS011;13848;49.018;12.078;2023-08-24T02:34:01;13.13;;;5.82;;
26082;SDS011;13848;49.018;12.078;2023-08-24T02:36:26;8.95;;;6.13;;
26082;SDS011;13848;49.018;12.078;2023-08-24T02:38:52;6.53;;;5.50;;
26082;SDS011;13848;49.018;12.078;2023-08-24T02:41:18;13.70;;;5.22;;
26082;SDS011;13848;49.018;12.078;2023-08-24T02:43:44;6.47;;;4.97;;
26082;SDS011;13848;49.018;12.078;2023-08-24T02:46:10;7.30;;;5.82;;
26082;SDS011;13848;49.018;12.078;2023-08-24T02:48:36;6.20;;;5.05;;
26082;SDS011;13848;49.018;12.078;2023-08-24T02:51:04;8.48;;;5.45;;
26082;SDS011;13848;49.018;12.078;2023-08-24T02:53:30;8.70;;;5.72;;
26082;SDS011;13848;49.018;12.078;2023-08-24T02:55:57;7.80;;;5.47;;
26082;SDS011;13848;49.018;12.078;2023-08-24T02:58:23;7.20;;;4.90;;
26082;SDS011;13848;49.018;12.078;2023-08-24T03:00:49;9.30;;;7.00;;
26082;SDS011;13848;49.018;12.078;2023-08-24T03:03:15;8.90;;;6.28;;
26082;SDS011;13848;49.018;12.078;2023-08-24T03:05:50;8.40;;;6.30;;
26082;SDS011;13848;49.018;12.078;2023-08-24T03:08:19;7.97;;;6.35;;
26082;SDS011;13848;49.018;12.078;2023-08-24T03:10:45;6.93;;;5.45;;
26082;SDS011;13848;49.018;12.078;2023-08-24T03:13:11;6.68;;;5.80;;
26082;SDS011;13848;49.018;12.078;2023-08-24T03:15:38;8.32;;;5.75;;
26082;SDS011;13848;49.018;12.078;2023-08-24T03:18:04;6.80;;;5.50;;
26082;SDS011;13848;49.018;12.078;2023-08-24T03:20:31;7.45;;;5.57;;
26082;SDS011;13848;49.018;12.078;2023-08-24T03:22:57;7.93;;;5.43;;
26082;SDS011;13848;49.018;12.078;2023-08-24T03:25:24;11.07;;;5.57;;
26082;SDS011;13848;49.018;12.078;2023-08-24T03:27:50;7.25;;;5.07;;
26082;SDS011;13848;49.018;12.078;2023-08-24T03:30:16;8.32;;;5.25;;
26082;SDS011;13848;49.018;12.078;2023-08-24T03:32:42;9.25;;;5.15;;
26082;SDS011;13848;49.018;12.078;2023-08-24T03:35:08;5.25;;;4.50;;
26082;SDS011;13848;49.018;12.078;2023-08-24T03:37:34;7.38;;;5.00;;
26082;SDS011;13848;49.018;12.078;2023-08-24T03:40:00;6.38;;;4.70;;
26082;SDS011;13848;49.018;12.078;2023-08-24T03:42:27;6.32;;;4.82;;
26082;SDS011;13848;49.018;12.078;2023-08-24T03:44:53;6.43;;;5.15;;
26082;SDS011;13848;49.018;12.078;2023-08-24T03:47:19;6.80;;;5.00;;
26082;SDS011;13848;49.018;12.078;2023-08-24T03:49:45;5.65;;;4.78;;
26082;SDS011;13848;49.018;12.078;2023-08-24T03:52:11;13.27;;;4.65;;
26082;SDS011;13848;49.018;12.078;2023-08-24T03:54:37;5.55;;;4.68;;
26082;SDS011;13848;49.018;12.078;2023-08-24T03:57:02;5.95;;;4.70;;
26082;SDS011;13848;49.018;12.078;2023-08-24T03:59:30;7.03;;;5.03;;
26082;SDS011;13848;49.018;12.078;2023-08-24T04:01:56;6.85;;;4.57;;
26082;SDS011;13848;49.018;12.078;2023-08-24T04:04:22;8.10;;;4.88;;
26082;SDS011;13848;49.018;12.078;2023-08-24T04:06:48;5.82;;;4.97;;
26082;SDS011;13848;49.018;12.078;2023-08-24T04:09:13;7.30;;;5.78;;
26082;SDS011;13848;49.018;12.078;2023-08-24T04:11:39;8.02;;;5.60;;
26082;SDS011;13848;49.018;12.078;2023-08-24T04:14:05;8.20;;;5.28;;
26082;SDS011;13848;49.018;12.078;2023-08-24T04:16:33;5.90;;;4.95;;
26082;SDS011;13848;49.018;12.078;2023-08-24T04:18:58;7.28;;;6.00;;
26082;SDS011;13848;49.018;12.078;2023-08-24T04:21:24;7.57;;;5.57;;
26082;SDS011;13848;49.018;12.078;2023-08-24T04:23:50;11.80;;;5.88;;
26082;SDS011;13848;49.018;12.078;2023-08-24T04:26:16;7.40;;;5.93;;
26082;SDS011;13848;49.018;12.078;2023-08-24T04:28:42;7.35;;;5.18;;
26082;SDS011;13848;49.018;12.078;2023-08-24T04:31:08;10.77;;;5.95;;
26082;SDS011;13848;49.018;12.078;2023-08-24T04:33:35;15.45;;;5.70;;
26082;SDS011;13848;49.018;12.078;2023-08-24T04:36:01;8.60;;;5.20;;
26082;SDS011;13848;49.018;12.078;2023-08-24T04:38:28;8.38;;;5.70;;
26082;SDS011;13848;49.018;12.078;2023-08-24T04:40:55;6.82;;;4.88;;
26082;SDS011;13848;49.018;12.078;2023-08-24T04:43:22;9.05;;;5.60;;
26082;SDS011;13848;49.018;12.078;2023-08-24T04:45:49;8.13;;;5.43;;
26082;SDS011;13848;49.018;12.078;2023-08-24T04:48:16;9.05;;;5.63;;
26082;SDS011;13848;49.018;12.078;2023-08-24T04:50:43;7.47;;;5.10;;
26082;SDS011;13848;49.018;12.078;2023-08-24T04:53:10;7.88;;;5.25;;
26082;SDS011;13848;49.018;12.078;2023-08-24T04:55:37;7.53;;;5.45;;
26082;SDS011;13848;49.018;12.078;2023-08-24T04:58:03;9.27;;;5.18;;
26082;SDS011;13848;49.018;12.078;2023-08-24T05:00:29;6.63;;;5.30;;
26082;SDS011;13848;49.018;12.078;2023-08-24T05:02:55;16.58;;;5.00;;
26082;SDS011;13848;49.018;12.078;2023-08-24T05:05:21;11.13;;;5.15;;
26082;SDS011;13848;49.018;12.078;2023-08-24T05:07:48;9.23;;;4.70;;
26082;SDS011;13848;49.018;12.078;2023-08-24T05:10:14;5.70;;;4.63;;
26082;SDS011;13848;49.018;12.078;2023-08-24T05:12:40;8.38;;;4.88;;
26082;SDS011;13848;49.018;12.078;2023-08-24T05:15:07;5.95;;;4.88;;
26082;SDS011;13848;49.018;12.078;2023-08-24T05:17:33;6.93;;;5.30;;
26082;SDS011;13848;49.018;12.078;2023-08-24T05:19:59;10.63;;;7.45;;
26082;SDS011;13848;49.018;12.078;2023-08-24T05:22:25;7.18;;;5.53;;
26082;SDS011;13848;49.018;12.078;2023-08-24T05:24:52;6.03;;;4.72;;
26082;SDS011;13848;49.018;12.078;2023-08-24T05:27:19;9.27;;;4.65;;
26082;SDS011;13848;49.018;12.078;2023-08-24T05:29:44;8.57;;;5.18;;
26082;SDS011;13848;49.018;12.078;2023-08-24T05:32:10;7.53;;;4.93;;
26082;SDS011;13848;49.018;12.078;2023-08-24T05:34:36;7.00;;;5.03;;
26082;SDS011;13848;49.018;12.078;2023-08-24T05:37:02;8.57;;;4.90;;
26082;SDS011;13848;49.018;12.078;2023-08-24T05:39:28;7.20;;;5.35;;
26082;SDS011;13848;49.018;12.078;2023-08-24T05:41:56;9.35;;;5.22;;
26082;SDS011;13848;49.018;12.078;2023-08-24T05:44:21;6.75;;;5.43;;
26082;SDS011;13848;49.018;12.078;2023-08-24T05:46:47;8.50;;;5.45;;
26082;SDS011;13848;49.018;12.078;2023-08-24T05:49:13;7.80;;;5.80;;
26082;SDS011;13848;49.018;12.078;2023-08-24T05:51:39;10.68;;;5.90;;
26082;SDS011;13848;49.018;12.078;2023-08-24T05:54:05;8.02;;;5.22;;
26082;SDS011;13848;49.018;12.078;2023-08-24T05:56:31;6.15;;;4.88;;
26082;SDS011;13848;49.018;12.078;2023-08-24T05:58:59;7.72;;;5.35;;
26082;SDS011;13848;49.018;12.078;2023-08-24T06:01:24;12.80;;;8.25;;
26082;SDS011;13848;49.018;12.078;2023-08-24T06:03:50;12.93;;;7.75;;
26082;SDS011;13848;49.018;12.078;2023-08-24T06:06:16;13.15;;;5.68;;
26082;SDS011;13848;49.018;12.078;2023-08-24T06:08:42;7.82;;;5.65;;
26082;SDS011;13848;49.018;12.078;2023-08-24T06:11:08;9.27;;;5.25;;
26082;SDS011;13848;49.018;12.078;2023-08-24T06:13:35;8.20;;;4.90;;
26082;SDS011;13848;49.018;12.078;2023-08-24T06:16:02;6.95;;;5.43;;
26082;SDS011;13848;49.018;12.078;2023-08-24T06:18:28;6.70;;;5.15;;
26082;SDS011;13848;49.018;12.078;2023-08-24T06:20:54;7.63;;;5.43;;
26082;SDS011;13848;49.018;12.078;2023-08-24T06:23:20;6.47;;;5.05;;
26082;SDS011;13848;49.018;12.078;2023-08-24T06:25:46;7.10;;;5.13;;
26082;SDS011;13848;49.018;12.078;2023-08-24T06:28:12;7.95;;;5.28;;
26082;SDS011;13848;49.018;12.078;2023-08-24T06:30:39;8.13;;;5.40;;
26082;SDS011;13848;49.018;12.078;2023-08-24T06:33:07;6.43;;;5.18;;
26082;SDS011;13848;49.018;12.078;2023-08-24T06:35:33;8.55;;;5.22;;
26082;SDS011;13848;49.018;12.078;2023-08-24T06:37:59;7.82;;;4.93;;
26082;SDS011;13848;49.018;12.078;2023-08-24T06:40:25;6.47;;;4.97;;
26082;SDS011;13848;49.018;12.078;2023-08-24T06:42:51;7.05;;;4.70;;
26082;SDS011;13848;49.018;12.078;2023-08-24T06:45:17;6.10;;;4.55;;
26082;SDS011;13848;49.018;12.078;2023-08-24T06:47:43;7.50;;;5.32;;
26082;SDS011;13848;49.018;12.078;2023-08-24T06:50:10;6.80;;;5.13;;
26082;SDS011;13848;49.018;12.078;2023-08-24T06:52:36;6.20;;;5.15;;
26082;SDS011;13848;49.018;12.078;2023-08-24T06:55:03;8.68;;;4.88;;
26082;SDS011;13848;49.018;12.078;2023-08-24T06:57:30;6.05;;;4.95;;
26082;SDS011;13848;49.018;12.078;2023-08-24T06:59:56;9.32;;;5.13;;
26082;SDS011;13848;49.018;12.078;2023-08-24T07:02:21;7.68;;;5.20;;
26082;SDS011;13848;49.018;12.078;2023-08-24T07:04:47;9.82;;;4.63;;
26082;SDS011;13848;49.018;12.078;2023-08-24T07:07:15;11.95;;;4.57;;
26082;SDS011;13848;49.018;12.078;2023-08-24T07:09:41;5.40;;;4.47;;
26082;SDS011;13848;49.018;12.078;2023-08-24T07:12:07;6.68;;;4.50;;
26082;SDS011;13848;49.018;12.078;2023-08-24T07:14:33;4.85;;;4.22;;
26082;SDS011;13848;49.018;12.078;2023-08-24T07:16:59;5.65;;;4.35;;
26082;SDS011;13848;49.018;12.078;2023-08-24T07:19:25;5.82;;;4.40;;
26082;SDS011;13848;49.018;12.078;2023-08-24T07:21:51;12.55;;;5.80;;
26082;SDS011;13848;49.018;12.078;2023-08-24T07:24:18;8.65;;;4.50;;
26082;SDS011;13848;49.018;12.078;2023-08-24T07:26:44;6.70;;;4.30;;
26082;SDS011;13848;49.018;12.078;2023-08-24T07:29:10;5.53;;;3.95;;
26082;SDS011;13848;49.018;12.078;2023-08-24T07:31:36;11.35;;;4.45;;
26082;SDS011;13848;49.018;12.078;2023-08-24T07:34:02;7.38;;;4.22;;
26082;SDS011;13848;49.018;12.078;2023-08-24T07:36:28;7.03;;;4.60;;
26082;SDS011;13848;49.018;12.078;2023-08-24T07:38:54;9.02;;;4.55;;
26082;SDS011;13848;49.018;12.078;2023-08-24T07:41:22;8.23;;;4.70;;
26082;SDS011;13848;49.018;12.078;2023-08-24T07:43:48;7.63;;;4.50;;
26082;SDS011;13848;49.018;12.078;2023-08-24T07:46:14;5.03;;;4.53;;
26082;SDS011;13848;49.018;12.078;2023-08-24T07:48:40;7.53;;;4.45;;
26082;SDS011;13848;49.018;12.078;2023-08-24T07:51:08;9.07;;;4.50;;
26082;SDS011;13848;49.018;12.078;2023-08-24T07:53:43;5.63;;;4.53;;
26082;SDS011;13848;49.018;12.078;2023-08-24T07:56:09;9.63;;;4.32;;
26082;SDS011;13848;49.018;12.078;2023-08-24T07:58:36;7.70;;;3.97;;
26082;SDS011;13848;49.018;12.078;2023-08-24T08:01:02;8.85;;;4.10;;
26082;SDS011;13848;49.018;12.078;2023-08-24T08:03:28;12.77;;;4.40;;
26082;SDS011;13848;49.018;12.078;2023-08-24T08:05:54;6.38;;;4.00;;
26082;SDS011;13848;49.018;12.078;2023-08-24T08:08:20;8.63;;;3.88;;
26082;SDS011;13848;49.018;12.078;2023-08-24T08:10:46;8.55;;;3.92;;
26082;SDS011;13848;49.018;12.078;2023-08-24T08:13:12;5.63;;;3.95;;
26082;SDS011;13848;49.018;12.078;2023-08-24T08:15:39;7.45;;;4.07;;
26082;SDS011;13848;49.018;12.078;2023-08-24T08:18:05;9.80;;;4.25;;
26082;SDS011;13848;49.018;12.078;2023-08-24T08:20:31;6.50;;;4.00;;
26082;SDS011;13848;49.018;12.078;2023-08-24T08:22:58;6.72;;;4.28;;
26082;SDS011;13848;49.018;12.078;2023-08-24T08:25:23;8.05;;;4.25;;
26082;SDS011;13848;49.018;12.078;2023-08-24T08:27:49;7.85;;;3.67;;
26082;SDS011;13848;49.018;12.078;2023-08-24T08:30:15;8.05;;;3.80;;
26082;SDS011;13848;49.018;12.078;2023-08-24T08:32:43;7.90;;;4.10;;
26082;SDS011;13848;49.018;12.078;2023-08-24T08:35:08;8.10;;;3.50;;
26082;SDS011;13848;49.018;12.078;2023-08-24T08:37:34;9.65;;;3.45;;
26082;SDS011;13848;49.018;12.078;2023-08-24T08:40:00;5.53;;;3.50;;
26082;SDS011;13848;49.018;12.078;2023-08-24T08:42:26;4.57;;;3.50;;
26082;SDS011;13848;49.018;12.078;2023-08-24T08:44:54;9.60;;;3.75;;
26082;SDS011;13848;49.018;12.078;2023-08-24T08:47:20;9.80;;;4.03;;
26082;SDS011;13848;49.018;12.078;2023-08-24T08:49:48;9.50;;;3.50;;
26082;SDS011;13848;49.018;12.078;2023-08-24T08:52:16;9.00;;;3.60;;
26082;SDS011;13848;49.018;12.078;2023-08-24T08:54:42;8.52;;;3.40;;
26082;SDS011;13848;49.018;12.078;2023-08-24T08:57:08;5.93;;;3.55;;
26082;SDS011;13848;49.018;12.078;2023-08-24T08:59:34;5.35;;;3.53;;
26082;SDS011;13848;49.018;12.078;2023-08-24T09:02:01;8.10;;;3.15;;
26082;SDS011;13848;49.018;12.078;2023-08-24T09:04:27;11.40;;;3.60;;
26082;SDS011;13848;49.018;12.078;2023-08-24T09:06:57;7.63;;;3.50;;
26082;SDS011;13848;49.018;12.078;2023-08-24T09:09:23;6.18;;;3.60;;
26082;SDS011;13848;49.018;12.078;2023-08-24T09:11:50;4.82;;;3.50;;
26082;SDS011;13848;49.018;12.078;2023-08-24T09:14:16;9.65;;;4.00;;
26082;SDS011;13848;49.018;12.078;2023-08-24T09:16:42;6.03;;;3.55;;
26082;SDS011;13848;49.018;12.078;2023-08-24T09:19:10;5.93;;;3.58;;
26082;SDS011;13848;49.018;12.078;2023-08-24T09:21:37;6.70;;;3.80;;
26082;SDS011;13848;49.018;12.078;2023-08-24T09:24:05;10.20;;;3.33;;
26082;SDS011;13848;49.018;12.078;2023-08-24T09:26:32;4.88;;;3.38;;
26082;SDS011;13848;49.018;12.078;2023-08-24T09:28:59;5.65;;;3.53;;
26082;SDS011;13848;49.018;12.078;2023-08-24T09:31:28;12.00;;;3.20;;
26082;SDS011;13848;49.018;12.078;2023-08-24T09:34:00;4.47;;;3.15;;
26082;SDS011;13848;49.018;12.078;2023-08-24T09:36:26;9.38;;;3.30;;
26082;SDS011;13848;49.018;12.078;2023-08-24T09:38:54;8.05;;;3.50;;
26082;SDS011;13848;49.018;12.078;2023-08-24T09:41:22;8.00;;;3.00;;
26082;SDS011;13848;49.018;12.078;2023-08-24T09:43:48;6.15;;;2.90;;
26082;SDS011;13848;49.018;12.078;2023-08-24T09:46:14;4.93;;;2.95;;
26082;SDS011;13848;49.018;12.078;2023-08-24T09:48:44;6.65;;;3.28;;
26082;SDS011;13848;49.018;12.078;2023-08-24T09:51:10;5.90;;;2.40;;
26082;SDS011;13848;49.018;12.078;2023-08-24T09:53:38;6.57;;;2.67;;
26082;SDS011;13848;49.018;12.078;2023-08-24T09:56:07;4.88;;;2.80;;
26082;SDS011;13848;49.018;12.078;2023-08-24T09:58:36;3.05;;;2.53;;
26082;SDS011;13848;49.018;12.078;2023-08-24T10:01:02;10.20;;;3.00;;
26082;SDS011;13848;49.018;12.078;2023-08-24T10:03:29;7.40;;;3.03;;
26082;SDS011;13848;49.018;12.078;2023-08-24T10:05:57;4.35;;;2.90;;
26082;SDS011;13848;49.018;12.078;2023-08-24T10:08:24;4.80;;;3.00;;
26082;SDS011;13848;49.018;12.078;2023-08-24T10:10:53;6.47;;;2.60;;
26082;SDS011;13848;49.018;12.078;2023-08-24T10:13:22;4.03;;;2.50;;
26082;SDS011;13848;49.018;12.078;2023-08-24T10:15:54;4.55;;;2.67;;
26082;SDS011;13848;49.018;12.078;2023-08-24T10:18:21;6.97;;;2.83;;
26082;SDS011;13848;49.018;12.078;2023-08-24T10:20:48;2.88;;;2.25;;
26082;SDS011;13848;49.018;12.078;2023-08-24T10:23:15;4.15;;;2.50;;
26082;SDS011;13848;49.018;12.078;2023-08-24T10:25:41;4.68;;;2.85;;
26082;SDS011;13848;49.018;12.078;2023-08-24T10:28:08;7.55;;;3.70;;
26082;SDS011;13848;49.018;12.078;2023-08-24T10:30:36;11.15;;;2.58;;
26082;SDS011;13848;49.018;12.078;2023-08-24T10:33:05;4.03;;;2.80;;
26082;SDS011;13848;49.018;12.078;2023-08-24T10:35:31;3.90;;;2.70;;
26082;SDS011;13848;49.018;12.078;2023-08-24T10:37:58;4.18;;;2.65;;
26082;SDS011;13848;49.018;12.078;2023-08-24T10:40:31;4.47;;;2.60;;
26082;SDS011;13848;49.018;12.078;2023-08-24T10:42:57;4.57;;;2.83;;
26082;SDS011;13848;49.018;12.078;2023-08-24T10:45:23;6.10;;;2.70;;
26082;SDS011;13848;49.018;12.078;2023-08-24T10:47:53;4.55;;;2.97;;
26082;SDS011;13848;49.018;12.078;2023-08-24T10:50:21;6.32;;;3.05;;
26082;SDS011;13848;49.018;12.078;2023-08-24T10:52:47;8.60;;;3.00;;
26082;SDS011;13848;49.018;12.078;2023-08-24T10:55:23;3.20;;;2.80;;
26082;SDS011;13848;49.018;12.078;2023-08-24T10:57:55;6.60;;;2.95;;
26082;SDS011;13848;49.018;12.078;2023-08-24T11:00:21;3.75;;;2.70;;
26082;SDS011;13848;49.018;12.078;2023-08-24T11:02:51;4.57;;;2.65;;
26082;SDS011;13848;49.018;12.078;2023-08-24T11:05:18;4.22;;;3.05;;
26082;SDS011;13848;49.018;12.078;2023-08-24T11:07:50;3.97;;;2.70;;
26082;SDS011;13848;49.018;12.078;2023-08-24T11:10:17;5.15;;;2.90;;
26082;SDS011;13848;49.018;12.078;2023-08-24T11:15:34;5.65;;;3.42;;
26082;SDS011;13848;49.018;12.078;2023-08-24T11:20:55;7.88;;;3.65;;
26082;SDS011;13848;49.018;12.078;2023-08-24T11:23:22;4.13;;;3.08;;
26082;SDS011;13848;49.018;12.078;2023-08-24T11:25:50;3.67;;;3.08;;
26082;SDS011;13848;49.018;12.078;2023-08-24T11:28:17;6.75;;;2.90;;
26082;SDS011;13848;49.018;12.078;2023-08-24T11:30:45;5.47;;;3.40;;
26082;SDS011;13848;49.018;12.078;2023-08-24T11:33:11;5.82;;;3.03;;
26082;SDS011;13848;49.018;12.078;2023-08-24T11:35:38;3.80;;;3.10;;
26082;SDS011;13848;49.018;12.078;2023-08-24T11:38:07;4.80;;;3.20;;
26082;SDS011;13848;49.018;12.078;2023-08-24T11:40:33;4.72;;;3.20;;
26082;SDS011;13848;49.018;12.078;2023-08-24T11:42:59;7.28;;;3.45;;
26082;SDS011;13848;49.018;12.078;2023-08-24T11:45:29;6.75;;;2.83;;
26082;SDS011;13848;49.018;12.078;2023-08-24T11:47:57;3.40;;;2.47;;
26082;SDS011;13848;49.018;12.078;2023-08-24T11:50:23;7.05;;;2.90;;
26082;SDS011;13848;49.018;12.078;2023-08-24T11:52:49;8.15;;;3.00;;
26082;SDS011;13848;49.018;12.078;2023-08-24T11:55:17;4.95;;;2.90;;
26082;SDS011;13848;49.018;12.078;2023-08-24T11:57:43;5.15;;;3.20;;
26082;SDS011;13848;49.018;12.078;2023-08-24T12:00:09;4.45;;;3.13;;
26082;SDS011;13848;49.018;12.078;2023-08-24T12:02:36;8.40;;;3.30;;
26082;SDS011;13848;49.018;12.078;2023-08-24T12:05:05;5.45;;;2.90;;
26082;SDS011;13848;49.018;12.078;2023-08-24T12:07:32;7.13;;;3.33;;
26082;SDS011;13848;49.018;12.078;2023-08-24T12:09:59;5.50;;;2.85;;
26082;SDS011;13848;49.018;12.078;2023-08-24T12:12:27;7.43;;;3.13;;
26082;SDS011;13848;49.018;12.078;2023-08-24T12:14:54;4.28;;;2.90;;
26082;SDS011;13848;49.018;12.078;2023-08-24T12:17:21;6.40;;;2.97;;
26082;SDS011;13848;49.018;12.078;2023-08-24T12:19:56;4.28;;;3.20;;
26082;SDS011;13848;49.018;12.078;2023-08-24T12:22:23;3.20;;;2.85;;
26082;SDS011;13848;49.018;12.078;2023-08-24T12:24:49;4.43;;;3.03;;
26082;SDS011;13848;49.018;12.078;2023-08-24T12:27:18;4.45;;;3.00;;
26082;SDS011;13848;49.018;12.078;2023-08-24T12:29:46;5.03;;;3.00;;
26082;SDS011;13848;49.018;12.078;2023-08-24T12:32:12;5.88;;;2.88;;
26082;SDS011;13848;49.018;12.078;2023-08-24T12:34:38;5.03;;;3.00;;
26082;SDS011;13848;49.018;12.078;2023-08-24T12:37:04;6.50;;;3.10;;
26082;SDS011;13848;49.018;12.078;2023-08-24T12:39:34;4.85;;;3.08;;
26082;SDS011;13848;49.018;12.078;2023-08-24T12:42:00;4.63;;;3.00;;
26082;SDS011;13848;49.018;12.078;2023-08-24T12:44:26;7.95;;;3.63;;
26082;SDS011;13848;49.018;12.078;2023-08-24T12:46:53;6.72;;;4.10;;
26082;SDS011;13848;49.018;12.078;2023-08-24T12:49:19;5.03;;;3.35;;
26082;SDS011;13848;49.018;12.078;2023-08-24T12:51:45;8.90;;;6.10;;
26082;SDS011;13848;49.018;12.078;2023-08-24T12:54:11;11.65;;;4.63;;
26082;SDS011;13848;49.018;12.078;2023-08-24T12:56:38;7.13;;;3.85;;
26082;SDS011;13848;49.018;12.078;2023-08-24T12:59:04;6.60;;;3.28;;
26082;SDS011;13848;49.018;12.078;2023-08-24T13:01:30;4.07;;;2.75;;
26082;SDS011;13848;49.018;12.078;2023-08-24T13:03:57;6.72;;;3.05;;
26082;SDS011;13848;49.018;12.078;2023-08-24T13:06:23;4.25;;;3.15;;
26082;SDS011;13848;49.018;12.078;2023-08-24T13:08:49;7.00;;;3.50;;
26082;SDS011;13848;49.018;12.078;2023-08-24T13:11:15;4.03;;;3.22;;
26082;SDS011;13848;49.018;12.078;2023-08-24T13:13:41;4.93;;;3.15;;
26082;SDS011;13848;49.018;12.078;2023-08-24T13:16:07;9.40;;;2.92;;
26082;SDS011;13848;49.018;12.078;2023-08-24T13:18:33;4.30;;;2.88;;
26082;SDS011;13848;49.018;12.078;2023-08-24T13:21:00;5.63;;;2.72;;
26082;SDS011;13848;49.018;12.078;2023-08-24T13:23:26;6.57;;;2.83;;
26082;SDS011;13848;49.018;12.078;2023-08-24T13:25:52;7.78;;;3.35;;
26082;SDS011;13848;49.018;12.078;2023-08-24T13:28:18;5.72;;;2.83;;
26082;SDS011;13848;49.018;12.078;2023-08-24T13:30:44;5.07;;;3.13;;
26082;SDS011;13848;49.018;12.078;2023-08-24T13:33:10;4.70;;;3.00;;
26082;SDS011;13848;49.018;12.078;2023-08-24T13:35:36;5.10;;;2.88;;
26082;SDS011;13848;49.018;12.078;2023-08-24T13:38:03;7.13;;;3.13;;
26082;SDS011;13848;49.018;12.078;2023-08-24T13:40:29;3.30;;;3.00;;
26082;SDS011;13848;49.018;12.078;2023-08-24T13:42:55;6.25;;;2.90;;
26082;SDS011;13848;49.018;12.078;2023-08-24T13:45:21;4.18;;;3.25;;
26082;SDS011;13848;49.018;12.078;2023-08-24T13:47:47;8.32;;;3.60;;
26082;SDS011;13848;49.018;12.078;2023-08-24T13:50:13;3.75;;;3.08;;
26082;SDS011;13848;49.018;12.078;2023-08-24T13:52:39;4.97;;;3.00;;
26082;SDS011;13848;49.018;12.078;2023-08-24T13:55:07;5.18;;;3.30;;
26082;SDS011;13848;49.018;12.078;2023-08-24T13:57:33;9.70;;;3.15;;
26082;SDS011;13848;49.018;12.078;2023-08-24T13:59:59;5.70;;;3.20;;
26082;SDS011;13848;49.018;12.078;2023-08-24T14:02:25;6.55;;;2.97;;
26082;SDS011;13848;49.018;12.078;2023-08-24T14:04:51;4.55;;;3.15;;
26082;SDS011;13848;49.018;12.078;2023-08-24T14:07:17;13.07;;;3.35;;
26082;SDS011;13848;49.018;12.078;2023-08-24T14:09:43;4.13;;;3.10;;
26082;SDS011;13848;49.018;12.078;2023-08-24T14:12:10;4.53;;;3.20;;
26082;SDS011;13848;49.018;12.078;2023-08-24T14:14:36;6.05;;;3.20;;
26082;SDS011;13848;49.018;12.078;2023-08-24T14:17:02;4.40;;;2.95;;
26082;SDS011;13848;49.018;12.078;2023-08-24T14:19:28;5.65;;;3.20;;
26082;SDS011;13848;49.018;12.078;2023-08-24T14:21:54;3.70;;;3.22;;
26082;SDS011;13848;49.018;12.078;2023-08-24T14:24:20;8.02;;;3.55;;
26082;SDS011;13848;49.018;12.078;2023-08-24T14:26:46;7.18;;;3.55;;
26082;SDS011;13848;49.018;12.078;2023-08-24T14:29:13;5.13;;;2.83;;
26082;SDS011;13848;49.018;12.078;2023-08-24T14:31:39;7.10;;;2.90;;
26082;SDS011;13848;49.018;12.078;2023-08-24T14:34:06;4.30;;;3.03;;
26082;SDS011;13848;49.018;12.078;2023-08-24T14:36:31;9.65;;;3.47;;